sensor_id;sensor_type;location;lat;lon;timestamp;temperature;humidity
652;DHT22;310;48.490;9.200;2023-03-07T00:01:48;7.90;27.30
652;DHT22;310;48.490;9.200;2023-03-07T00:04:15;7.80;27.50
652;DHT22;310;48.490;9.200;2023-03-07T00:06:41;7.40;27.70
652;DHT22;310;48.490;9.200;2023-03-07T00:09:06;6.90;28.50
652;DHT22;310;48.490;9.200;2023-03-07T00:11:32;7.00;28.50
652;DHT22;310;48.490;9.200;2023-03-07T00:13:57;6.90;28.70
652;DHT22;310;48.490;9.200;2023-03-07T00:16:24;7.30;27.90
652;DHT22;310;48.490;9.200;2023-03-07T00:18:50;7.10;28.00
652;DHT22;310;48.490;9.200;2023-03-07T00:21:20;7.00;28.30
652;DHT22;310;48.490;9.200;2023-03-07T00:23:47;7.10;28.40
652;DHT22;310;48.490;9.200;2023-03-07T00:26:15;7.30;28.00
652;DHT22;310;48.490;9.200;2023-03-07T00:28:42;7.10;28.50
652;DHT22;310;48.490;9.200;2023-03-07T00:31:09;6.80;29.00
652;DHT22;310;48.490;9.200;2023-03-07T00:33:36;7.00;28.60
652;DHT22;310;48.490;9.200;2023-03-07T00:36:05;7.50;28.00
652;DHT22;310;48.490;9.200;2023-03-07T00:38:32;6.80;28.70
652;DHT22;310;48.490;9.200;2023-03-07T00:41:05;6.70;29.80
652;DHT22;310;48.490;9.200;2023-03-07T00:43:32;6.50;29.50
652;DHT22;310;48.490;9.200;2023-03-07T00:45:57;6.00;30.20
652;DHT22;310;48.490;9.200;2023-03-07T00:48:24;6.50;30.00
652;DHT22;310;48.490;9.200;2023-03-07T00:50:51;6.30;30.10
652;DHT22;310;48.490;9.200;2023-03-07T00:53:18;6.70;29.60
652;DHT22;310;48.490;9.200;2023-03-07T00:56:05;6.80;29.50
652;DHT22;310;48.490;9.200;2023-03-07T00:58:34;7.30;28.80
652;DHT22;310;48.490;9.200;2023-03-07T01:01:00;7.70;27.90
652;DHT22;310;48.490;9.200;2023-03-07T01:03:26;7.90;27.50
652;DHT22;310;48.490;9.200;2023-03-07T01:05:53;7.90;27.40
652;DHT22;310;48.490;9.200;2023-03-07T01:08:19;7.60;27.90
652;DHT22;310;48.490;9.200;2023-03-07T01:10:46;7.70;27.70
652;DHT22;310;48.490;9.200;2023-03-07T01:13:16;7.80;28.00
652;DHT22;310;48.490;9.200;2023-03-07T01:15:42;7.60;28.00
652;DHT22;310;48.490;9.200;2023-03-07T01:18:09;7.90;27.40
652;DHT22;310;48.490;9.200;2023-03-07T01:20:36;8.00;27.10
652;DHT22;310;48.490;9.200;2023-03-07T01:23:03;8.00;27.40
652;DHT22;310;48.490;9.200;2023-03-07T01:25:29;8.00;27.30
652;DHT22;310;48.490;9.200;2023-03-07T01:27:55;8.00;28.20
652;DHT22;310;48.490;9.200;2023-03-07T01:30:23;7.70;28.00
652;DHT22;310;48.490;9.200;2023-03-07T01:36:19;7.60;27.90
652;DHT22;310;48.490;9.200;2023-03-07T01:38:48;7.40;28.70
652;DHT22;310;48.490;9.200;2023-03-07T01:41:15;7.30;28.60
652;DHT22;310;48.490;9.200;2023-03-07T01:43:41;7.30;28.30
652;DHT22;310;48.490;9.200;2023-03-07T01:48:54;8.00;27.10
652;DHT22;310;48.490;9.200;2023-03-07T01:51:21;8.00;27.70
652;DHT22;310;48.490;9.200;2023-03-07T01:53:49;7.80;27.30
652;DHT22;310;48.490;9.200;2023-03-07T01:56:15;7.80;27.80
652;DHT22;310;48.490;9.200;2023-03-07T01:58:41;7.40;28.10
652;DHT22;310;48.490;9.200;2023-03-07T02:01:09;7.50;28.10
652;DHT22;310;48.490;9.200;2023-03-07T02:03:40;7.30;27.90
652;DHT22;310;48.490;9.200;2023-03-07T02:06:09;7.20;27.80
652;DHT22;310;48.490;9.200;2023-03-07T02:08:36;7.40;27.90
652;DHT22;310;48.490;9.200;2023-03-07T02:11:04;7.00;27.90
652;DHT22;310;48.490;9.200;2023-03-07T02:13:30;6.80;27.90
652;DHT22;310;48.490;9.200;2023-03-07T02:15:57;6.60;28.10
652;DHT22;310;48.490;9.200;2023-03-07T02:18:26;7.10;28.00
652;DHT22;310;48.490;9.200;2023-03-07T02:20:58;6.70;27.80
652;DHT22;310;48.490;9.200;2023-03-07T02:26:12;5.90;29.30
652;DHT22;310;48.490;9.200;2023-03-07T02:28:41;6.20;29.10
652;DHT22;310;48.490;9.200;2023-03-07T02:31:08;6.40;28.70
652;DHT22;310;48.490;9.200;2023-03-07T02:33:34;7.20;27.70
652;DHT22;310;48.490;9.200;2023-03-07T02:36:09;6.80;27.60
652;DHT22;310;48.490;9.200;2023-03-07T02:38:37;6.30;29.10
652;DHT22;310;48.490;9.200;2023-03-07T02:41:06;6.60;28.00
652;DHT22;310;48.490;9.200;2023-03-07T02:43:33;6.50;27.70
652;DHT22;310;48.490;9.200;2023-03-07T02:45:58;6.30;28.40
652;DHT22;310;48.490;9.200;2023-03-07T02:48:24;6.40;28.30
652;DHT22;310;48.490;9.200;2023-03-07T02:50:49;6.70;27.50
652;DHT22;310;48.490;9.200;2023-03-07T02:53:15;6.30;28.20
652;DHT22;310;48.490;9.200;2023-03-07T02:55:41;6.60;28.00
652;DHT22;310;48.490;9.200;2023-03-07T02:58:07;6.60;27.70
652;DHT22;310;48.490;9.200;2023-03-07T03:00:32;6.60;27.50
652;DHT22;310;48.490;9.200;2023-03-07T03:02:58;6.60;27.60
652;DHT22;310;48.490;9.200;2023-03-07T03:05:24;7.10;26.90
652;DHT22;310;48.490;9.200;2023-03-07T03:07:49;7.30;26.40
652;DHT22;310;48.490;9.200;2023-03-07T03:10:16;7.50;26.40
652;DHT22;310;48.490;9.200;2023-03-07T03:12:42;7.50;26.40
652;DHT22;310;48.490;9.200;2023-03-07T03:15:09;6.80;27.00
652;DHT22;310;48.490;9.200;2023-03-07T03:17:34;7.10;26.60
652;DHT22;310;48.490;9.200;2023-03-07T03:20:00;7.30;26.00
652;DHT22;310;48.490;9.200;2023-03-07T03:22:26;6.90;26.90
652;DHT22;310;48.490;9.200;2023-03-07T03:24:52;7.00;26.50
652;DHT22;310;48.490;9.200;2023-03-07T03:27:17;7.20;26.90
652;DHT22;310;48.490;9.200;2023-03-07T03:29:43;7.30;26.10
652;DHT22;310;48.490;9.200;2023-03-07T03:32:08;7.40;26.10
652;DHT22;310;48.490;9.200;2023-03-07T03:34:35;7.20;25.90
652;DHT22;310;48.490;9.200;2023-03-07T03:37:00;7.30;26.50
652;DHT22;310;48.490;9.200;2023-03-07T03:39:26;7.20;26.10
652;DHT22;310;48.490;9.200;2023-03-07T03:41:53;7.40;25.50
652;DHT22;310;48.490;9.200;2023-03-07T03:44:19;7.30;25.90
652;DHT22;310;48.490;9.200;2023-03-07T03:46:46;7.70;25.90
652;DHT22;310;48.490;9.200;2023-03-07T03:49:12;7.20;25.90
652;DHT22;310;48.490;9.200;2023-03-07T03:51:38;7.20;25.80
652;DHT22;310;48.490;9.200;2023-03-07T03:54:03;7.10;26.60
652;DHT22;310;48.490;9.200;2023-03-07T03:56:29;7.30;25.50
652;DHT22;310;48.490;9.200;2023-03-07T03:58:56;7.10;26.20
652;DHT22;310;48.490;9.200;2023-03-07T04:01:24;7.10;25.90
652;DHT22;310;48.490;9.200;2023-03-07T04:03:51;7.30;25.50
652;DHT22;310;48.490;9.200;2023-03-07T04:06:28;7.00;25.70
652;DHT22;310;48.490;9.200;2023-03-07T04:08:54;7.10;25.50
652;DHT22;310;48.490;9.200;2023-03-07T04:11:21;7.40;26.00
652;DHT22;310;48.490;9.200;2023-03-07T04:13:47;7.50;25.60
652;DHT22;310;48.490;9.200;2023-03-07T04:16:13;7.60;24.70
652;DHT22;310;48.490;9.200;2023-03-07T04:18:39;7.60;25.20
652;DHT22;310;48.490;9.200;2023-03-07T04:21:05;7.70;24.40
652;DHT22;310;48.490;9.200;2023-03-07T04:23:32;7.60;24.60
652;DHT22;310;48.490;9.200;2023-03-07T04:25:59;7.30;25.60
652;DHT22;310;48.490;9.200;2023-03-07T04:28:28;7.20;26.00
652;DHT22;310;48.490;9.200;2023-03-07T04:31:06;7.30;25.20
652;DHT22;310;48.490;9.200;2023-03-07T04:33:31;7.50;24.70
652;DHT22;310;48.490;9.200;2023-03-07T04:35:57;7.30;24.90
652;DHT22;310;48.490;9.200;2023-03-07T04:38:22;7.60;24.50
652;DHT22;310;48.490;9.200;2023-03-07T04:40:48;7.20;24.90
652;DHT22;310;48.490;9.200;2023-03-07T04:43:13;7.50;24.70
652;DHT22;310;48.490;9.200;2023-03-07T04:45:39;7.70;24.20
652;DHT22;310;48.490;9.200;2023-03-07T04:48:05;7.80;24.30
652;DHT22;310;48.490;9.200;2023-03-07T04:50:30;7.70;25.00
652;DHT22;310;48.490;9.200;2023-03-07T04:52:56;7.40;25.20
652;DHT22;310;48.490;9.200;2023-03-07T04:55:22;7.20;25.30
652;DHT22;310;48.490;9.200;2023-03-07T04:57:47;7.60;25.00
652;DHT22;310;48.490;9.200;2023-03-07T05:00:14;7.70;24.90
652;DHT22;310;48.490;9.200;2023-03-07T05:02:39;8.00;24.00
652;DHT22;310;48.490;9.200;2023-03-07T05:05:05;7.50;24.70
652;DHT22;310;48.490;9.200;2023-03-07T05:07:31;7.50;25.00
652;DHT22;310;48.490;9.200;2023-03-07T05:09:57;7.10;26.10
652;DHT22;310;48.490;9.200;2023-03-07T05:12:23;7.20;25.30
652;DHT22;310;48.490;9.200;2023-03-07T05:14:49;7.30;25.50
652;DHT22;310;48.490;9.200;2023-03-07T05:17:15;7.30;25.50
652;DHT22;310;48.490;9.200;2023-03-07T05:19:41;6.80;25.70
652;DHT22;310;48.490;9.200;2023-03-07T05:22:07;6.80;26.80
652;DHT22;310;48.490;9.200;2023-03-07T05:24:34;7.30;25.50
652;DHT22;310;48.490;9.200;2023-03-07T05:26:59;7.30;25.20
652;DHT22;310;48.490;9.200;2023-03-07T05:29:25;7.10;25.50
652;DHT22;310;48.490;9.200;2023-03-07T05:31:50;7.00;25.80
652;DHT22;310;48.490;9.200;2023-03-07T05:34:16;6.90;25.90
652;DHT22;310;48.490;9.200;2023-03-07T05:36:42;7.40;25.60
652;DHT22;310;48.490;9.200;2023-03-07T05:39:08;7.30;25.50
652;DHT22;310;48.490;9.200;2023-03-07T05:41:34;7.20;25.40
652;DHT22;310;48.490;9.200;2023-03-07T05:44:00;7.60;25.00
652;DHT22;310;48.490;9.200;2023-03-07T05:46:26;8.10;24.50
652;DHT22;310;48.490;9.200;2023-03-07T05:48:51;7.80;25.60
652;DHT22;310;48.490;9.200;2023-03-07T05:51:17;7.90;25.10
652;DHT22;310;48.490;9.200;2023-03-07T05:53:43;7.80;24.90
652;DHT22;310;48.490;9.200;2023-03-07T05:56:10;7.60;24.90
652;DHT22;310;48.490;9.200;2023-03-07T05:58:36;7.70;24.80
652;DHT22;310;48.490;9.200;2023-03-07T06:01:02;7.40;25.10
652;DHT22;310;48.490;9.200;2023-03-07T06:03:28;7.40;25.30
652;DHT22;310;48.490;9.200;2023-03-07T06:05:54;7.30;25.50
652;DHT22;310;48.490;9.200;2023-03-07T06:08:19;7.30;25.40
652;DHT22;310;48.490;9.200;2023-03-07T06:10:49;7.00;25.40
652;DHT22;310;48.490;9.200;2023-03-07T06:13:17;6.90;26.00
652;DHT22;310;48.490;9.200;2023-03-07T06:15:43;7.10;25.80
652;DHT22;310;48.490;9.200;2023-03-07T06:18:09;7.60;25.30
652;DHT22;310;48.490;9.200;2023-03-07T06:20:35;7.70;24.90
652;DHT22;310;48.490;9.200;2023-03-07T06:23:01;7.40;25.20
652;DHT22;310;48.490;9.200;2023-03-07T06:25:27;7.60;25.30
652;DHT22;310;48.490;9.200;2023-03-07T06:27:52;7.80;24.90
652;DHT22;310;48.490;9.200;2023-03-07T06:30:24;7.80;24.50
652;DHT22;310;48.490;9.200;2023-03-07T06:32:49;8.00;25.30
652;DHT22;310;48.490;9.200;2023-03-07T06:35:15;6.90;26.10
652;DHT22;310;48.490;9.200;2023-03-07T06:37:41;7.30;25.70
652;DHT22;310;48.490;9.200;2023-03-07T06:40:07;7.50;25.30
652;DHT22;310;48.490;9.200;2023-03-07T06:42:34;7.30;25.60
652;DHT22;310;48.490;9.200;2023-03-07T06:45:00;7.50;25.20
652;DHT22;310;48.490;9.200;2023-03-07T06:47:25;7.50;25.20
652;DHT22;310;48.490;9.200;2023-03-07T06:49:51;6.90;25.90
652;DHT22;310;48.490;9.200;2023-03-07T06:52:18;7.00;26.10
652;DHT22;310;48.490;9.200;2023-03-07T06:54:43;7.50;25.50
652;DHT22;310;48.490;9.200;2023-03-07T06:57:09;7.40;25.60
652;DHT22;310;48.490;9.200;2023-03-07T06:59:34;7.30;25.50
652;DHT22;310;48.490;9.200;2023-03-07T07:02:01;7.10;26.70
652;DHT22;310;48.490;9.200;2023-03-07T07:04:27;7.10;26.10
652;DHT22;310;48.490;9.200;2023-03-07T07:06:53;7.20;26.00
652;DHT22;310;48.490;9.200;2023-03-07T07:09:19;7.90;25.30
652;DHT22;310;48.490;9.200;2023-03-07T07:11:44;7.50;25.40
652;DHT22;310;48.490;9.200;2023-03-07T07:14:10;7.50;25.60
652;DHT22;310;48.490;9.200;2023-03-07T07:16:36;7.30;25.60
652;DHT22;310;48.490;9.200;2023-03-07T07:19:01;7.20;25.80
652;DHT22;310;48.490;9.200;2023-03-07T07:21:27;7.20;25.80
652;DHT22;310;48.490;9.200;2023-03-07T07:23:55;8.10;25.90
652;DHT22;310;48.490;9.200;2023-03-07T07:26:21;7.40;25.80
652;DHT22;310;48.490;9.200;2023-03-07T07:28:48;7.10;26.20
652;DHT22;310;48.490;9.200;2023-03-07T07:31:14;7.10;26.00
652;DHT22;310;48.490;9.200;2023-03-07T07:33:40;7.70;25.50
652;DHT22;310;48.490;9.200;2023-03-07T07:36:06;7.90;25.70
652;DHT22;310;48.490;9.200;2023-03-07T07:38:32;7.70;25.50
652;DHT22;310;48.490;9.200;2023-03-07T07:40:58;7.90;24.80
652;DHT22;310;48.490;9.200;2023-03-07T07:43:25;7.80;24.80
652;DHT22;310;48.490;9.200;2023-03-07T07:45:50;8.20;24.60
652;DHT22;310;48.490;9.200;2023-03-07T07:48:16;7.90;24.80
652;DHT22;310;48.490;9.200;2023-03-07T07:50:41;7.70;25.00
652;DHT22;310;48.490;9.200;2023-03-07T07:53:07;7.40;25.40
652;DHT22;310;48.490;9.200;2023-03-07T07:55:33;7.30;25.80
652;DHT22;310;48.490;9.200;2023-03-07T07:57:58;7.40;25.50
652;DHT22;310;48.490;9.200;2023-03-07T08:00:24;7.80;25.10
652;DHT22;310;48.490;9.200;2023-03-07T08:02:50;7.90;25.20
652;DHT22;310;48.490;9.200;2023-03-07T08:05:17;8.40;24.70
652;DHT22;310;48.490;9.200;2023-03-07T08:07:44;8.50;24.20
652;DHT22;310;48.490;9.200;2023-03-07T08:10:11;8.30;24.60
652;DHT22;310;48.490;9.200;2023-03-07T08:12:43;8.20;24.20
652;DHT22;310;48.490;9.200;2023-03-07T08:15:10;7.90;24.80
652;DHT22;310;48.490;9.200;2023-03-07T08:17:36;8.00;25.00
652;DHT22;310;48.490;9.200;2023-03-07T08:20:02;7.80;25.30
652;DHT22;310;48.490;9.200;2023-03-07T08:22:33;7.90;24.80
652;DHT22;310;48.490;9.200;2023-03-07T08:24:58;8.50;24.00
652;DHT22;310;48.490;9.200;2023-03-07T08:27:26;8.40;24.00
652;DHT22;310;48.490;9.200;2023-03-07T08:29:51;8.00;25.10
652;DHT22;310;48.490;9.200;2023-03-07T08:32:18;8.80;24.20
652;DHT22;310;48.490;9.200;2023-03-07T08:34:44;8.70;23.80
652;DHT22;310;48.490;9.200;2023-03-07T08:37:09;8.80;23.40
652;DHT22;310;48.490;9.200;2023-03-07T08:39:35;8.20;24.30
652;DHT22;310;48.490;9.200;2023-03-07T08:42:00;8.30;24.00
652;DHT22;310;48.490;9.200;2023-03-07T08:44:26;8.20;24.20
652;DHT22;310;48.490;9.200;2023-03-07T08:46:52;8.40;24.00
652;DHT22;310;48.490;9.200;2023-03-07T08:49:18;8.20;24.40
652;DHT22;310;48.490;9.200;2023-03-07T08:51:46;8.10;24.20
652;DHT22;310;48.490;9.200;2023-03-07T08:54:12;8.00;24.60
652;DHT22;310;48.490;9.200;2023-03-07T08:56:37;8.00;24.50
652;DHT22;310;48.490;9.200;2023-03-07T08:59:03;7.90;25.00
652;DHT22;310;48.490;9.200;2023-03-07T09:01:29;7.90;25.10
652;DHT22;310;48.490;9.200;2023-03-07T09:03:54;8.10;24.10
652;DHT22;310;48.490;9.200;2023-03-07T09:06:20;8.30;25.10
652;DHT22;310;48.490;9.200;2023-03-07T09:08:47;8.90;23.40
652;DHT22;310;48.490;9.200;2023-03-07T09:11:13;8.50;23.50
652;DHT22;310;48.490;9.200;2023-03-07T09:13:39;7.30;24.60
652;DHT22;310;48.490;9.200;2023-03-07T09:16:06;7.40;25.40
652;DHT22;310;48.490;9.200;2023-03-07T09:18:32;8.00;24.50
652;DHT22;310;48.490;9.200;2023-03-07T09:21:02;8.30;23.50
652;DHT22;310;48.490;9.200;2023-03-07T09:23:28;8.00;24.00
652;DHT22;310;48.490;9.200;2023-03-07T09:25:57;7.90;24.60
652;DHT22;310;48.490;9.200;2023-03-07T09:28:22;8.50;23.90
652;DHT22;310;48.490;9.200;2023-03-07T09:30:48;8.50;23.30
652;DHT22;310;48.490;9.200;2023-03-07T09:33:14;8.20;23.70
652;DHT22;310;48.490;9.200;2023-03-07T09:35:39;7.80;24.70
652;DHT22;310;48.490;9.200;2023-03-07T09:38:05;7.40;25.00
652;DHT22;310;48.490;9.200;2023-03-07T09:40:34;7.00;26.10
652;DHT22;310;48.490;9.200;2023-03-07T09:43:04;7.50;25.30
652;DHT22;310;48.490;9.200;2023-03-07T09:49:05;7.70;24.90
652;DHT22;310;48.490;9.200;2023-03-07T09:51:38;8.30;24.00
652;DHT22;310;48.490;9.200;2023-03-07T09:54:17;8.80;23.60
652;DHT22;310;48.490;9.200;2023-03-07T09:56:55;8.90;23.00
652;DHT22;310;48.490;9.200;2023-03-07T10:02:17;8.50;23.80
652;DHT22;310;48.490;9.200;2023-03-07T10:05:01;9.50;22.50
652;DHT22;310;48.490;9.200;2023-03-07T10:07:28;9.30;21.70
652;DHT22;310;48.490;9.200;2023-03-07T10:10:36;8.40;22.90
652;DHT22;310;48.490;9.200;2023-03-07T10:22:08;8.60;23.20
652;DHT22;310;48.490;9.200;2023-03-07T10:27:42;8.50;21.80
652;DHT22;310;48.490;9.200;2023-03-07T10:30:19;8.50;21.50
652;DHT22;310;48.490;9.200;2023-03-07T10:32:54;8.50;21.20
652;DHT22;310;48.490;9.200;2023-03-07T10:35:22;7.70;22.60
652;DHT22;310;48.490;9.200;2023-03-07T10:40:56;8.30;21.70
652;DHT22;310;48.490;9.200;2023-03-07T10:43:27;7.90;21.70
652;DHT22;310;48.490;9.200;2023-03-07T10:48:43;7.30;22.90
652;DHT22;310;48.490;9.200;2023-03-07T10:54:13;6.90;23.20
652;DHT22;310;48.490;9.200;2023-03-07T10:56:39;7.00;22.90
652;DHT22;310;48.490;9.200;2023-03-07T10:59:09;7.20;23.10
652;DHT22;310;48.490;9.200;2023-03-07T11:01:36;7.80;22.10
652;DHT22;310;48.490;9.200;2023-03-07T11:04:04;7.40;22.60
652;DHT22;310;48.490;9.200;2023-03-07T11:06:40;8.30;22.10
652;DHT22;310;48.490;9.200;2023-03-07T11:09:27;8.50;20.60
652;DHT22;310;48.490;9.200;2023-03-07T11:11:54;8.60;20.70
652;DHT22;310;48.490;9.200;2023-03-07T11:14:21;9.00;19.60
652;DHT22;310;48.490;9.200;2023-03-07T11:16:59;8.80;20.70
652;DHT22;310;48.490;9.200;2023-03-07T11:21:54;7.40;22.10
652;DHT22;310;48.490;9.200;2023-03-07T11:24:28;7.50;22.00
652;DHT22;310;48.490;9.200;2023-03-07T11:26:56;7.30;22.40
652;DHT22;310;48.490;9.200;2023-03-07T11:29:22;7.90;21.70
652;DHT22;310;48.490;9.200;2023-03-07T11:32:02;7.90;22.00
652;DHT22;310;48.490;9.200;2023-03-07T11:42:57;7.80;21.80
652;DHT22;310;48.490;9.200;2023-03-07T11:45:40;9.00;20.00
652;DHT22;310;48.490;9.200;2023-03-07T11:50:56;9.90;18.40
652;DHT22;310;48.490;9.200;2023-03-07T12:01:31;8.90;18.80
652;DHT22;310;48.490;9.200;2023-03-07T12:07:27;9.20;20.10
652;DHT22;310;48.490;9.200;2023-03-07T12:13:14;9.40;20.70
652;DHT22;310;48.490;9.200;2023-03-07T12:28:53;8.00;21.80
652;DHT22;310;48.490;9.200;2023-03-07T12:31:30;7.80;21.90
652;DHT22;310;48.490;9.200;2023-03-07T12:36:43;8.00;21.90
652;DHT22;310;48.490;9.200;2023-03-07T12:39:18;8.80;21.00
652;DHT22;310;48.490;9.200;2023-03-07T12:42:12;10.20;19.00
652;DHT22;310;48.490;9.200;2023-03-07T12:49:52;10.50;17.90
652;DHT22;310;48.490;9.200;2023-03-07T12:52:35;10.80;16.90
652;DHT22;310;48.490;9.200;2023-03-07T12:55:25;9.90;18.70
652;DHT22;310;48.490;9.200;2023-03-07T13:00:58;11.50;15.70
652;DHT22;310;48.490;9.200;2023-03-07T13:06:18;11.70;15.30
652;DHT22;310;48.490;9.200;2023-03-07T13:08:49;10.90;16.80
652;DHT22;310;48.490;9.200;2023-03-07T13:11:20;10.70;16.00
652;DHT22;310;48.490;9.200;2023-03-07T13:13:49;10.50;16.20
652;DHT22;310;48.490;9.200;2023-03-07T13:16:38;11.40;16.60
652;DHT22;310;48.490;9.200;2023-03-07T13:21:55;12.40;14.10
652;DHT22;310;48.490;9.200;2023-03-07T13:24:33;10.60;15.70
652;DHT22;310;48.490;9.200;2023-03-07T13:26:59;9.40;19.20
652;DHT22;310;48.490;9.200;2023-03-07T13:35:51;9.20;19.80
652;DHT22;310;48.490;9.200;2023-03-07T13:38:40;9.00;19.70
652;DHT22;310;48.490;9.200;2023-03-07T13:41:10;9.40;19.40
652;DHT22;310;48.490;9.200;2023-03-07T13:49:03;10.60;17.20
652;DHT22;310;48.490;9.200;2023-03-07T13:51:29;11.70;15.70
652;DHT22;310;48.490;9.200;2023-03-07T13:54:14;12.00;16.10
652;DHT22;310;48.490;9.200;2023-03-07T13:56:41;11.00;16.10
652;DHT22;310;48.490;9.200;2023-03-07T14:04:19;11.70;15.50
652;DHT22;310;48.490;9.200;2023-03-07T14:06:55;11.20;17.00
652;DHT22;310;48.490;9.200;2023-03-07T14:09:25;12.30;15.20
652;DHT22;310;48.490;9.200;2023-03-07T14:24:54;12.40;15.40
652;DHT22;310;48.490;9.200;2023-03-07T14:27:21;13.40;13.70
652;DHT22;310;48.490;9.200;2023-03-07T14:29:52;12.80;14.30
652;DHT22;310;48.490;9.200;2023-03-07T14:32:30;13.50;13.70
652;DHT22;310;48.490;9.200;2023-03-07T14:34:57;12.70;14.00
652;DHT22;310;48.490;9.200;2023-03-07T14:37:28;11.30;15.60
652;DHT22;310;48.490;9.200;2023-03-07T14:50:35;10.80;16.30
652;DHT22;310;48.490;9.200;2023-03-07T14:53:36;10.70;16.20
652;DHT22;310;48.490;9.200;2023-03-07T14:56:06;9.70;18.40
652;DHT22;310;48.490;9.200;2023-03-07T14:58:35;9.40;19.00
652;DHT22;310;48.490;9.200;2023-03-07T15:01:04;9.20;19.00
652;DHT22;310;48.490;9.200;2023-03-07T15:03:31;10.00;17.90
652;DHT22;310;48.490;9.200;2023-03-07T15:05:59;10.40;17.10
652;DHT22;310;48.490;9.200;2023-03-07T15:08:29;10.00;18.20
652;DHT22;310;48.490;9.200;2023-03-07T15:11:05;9.60;19.10
652;DHT22;310;48.490;9.200;2023-03-07T15:13:36;9.70;18.70
652;DHT22;310;48.490;9.200;2023-03-07T15:16:09;9.90;18.30
652;DHT22;310;48.490;9.200;2023-03-07T15:18:48;10.60;17.30
652;DHT22;310;48.490;9.200;2023-03-07T15:21:18;10.80;16.50
652;DHT22;310;48.490;9.200;2023-03-07T15:23:55;10.20;17.60
652;DHT22;310;48.490;9.200;2023-03-07T15:26:23;10.70;16.90
652;DHT22;310;48.490;9.200;2023-03-07T15:29:00;10.50;17.20
652;DHT22;310;48.490;9.200;2023-03-07T15:31:31;9.70;18.80
652;DHT22;310;48.490;9.200;2023-03-07T15:34:29;9.40;18.90
652;DHT22;310;48.490;9.200;2023-03-07T15:37:21;9.50;19.20
652;DHT22;310;48.490;9.200;2023-03-07T15:42:27;9.10;19.40
652;DHT22;310;48.490;9.200;2023-03-07T15:44:58;9.30;19.30
652;DHT22;310;48.490;9.200;2023-03-07T15:47:26;9.40;19.50
652;DHT22;310;48.490;9.200;2023-03-07T15:49:54;10.00;17.60
652;DHT22;310;48.490;9.200;2023-03-07T15:52:28;10.00;18.20
652;DHT22;310;48.490;9.200;2023-03-07T15:54:56;9.60;19.30
652;DHT22;310;48.490;9.200;2023-03-07T15:57:26;9.50;19.20
652;DHT22;310;48.490;9.200;2023-03-07T15:59:59;9.60;19.30
652;DHT22;310;48.490;9.200;2023-03-07T16:05:05;10.30;17.20
652;DHT22;310;48.490;9.200;2023-03-07T16:07:32;10.50;17.10
652;DHT22;310;48.490;9.200;2023-03-07T16:09:57;10.30;17.70
652;DHT22;310;48.490;9.200;2023-03-07T16:12:24;10.70;17.00
652;DHT22;310;48.490;9.200;2023-03-07T16:14:52;10.90;16.70
652;DHT22;310;48.490;9.200;2023-03-07T16:17:34;11.20;16.60
652;DHT22;310;48.490;9.200;2023-03-07T16:20:00;10.70;16.60
652;DHT22;310;48.490;9.200;2023-03-07T16:22:26;10.70;16.70
652;DHT22;310;48.490;9.200;2023-03-07T16:24:52;10.70;16.80
652;DHT22;310;48.490;9.200;2023-03-07T16:27:19;10.40;17.00
652;DHT22;310;48.490;9.200;2023-03-07T16:29:45;10.80;16.90
652;DHT22;310;48.490;9.200;2023-03-07T16:32:13;11.00;16.70
652;DHT22;310;48.490;9.200;2023-03-07T16:34:39;11.00;16.50
652;DHT22;310;48.490;9.200;2023-03-07T16:37:05;10.60;17.10
652;DHT22;310;48.490;9.200;2023-03-07T16:39:31;10.00;18.00
652;DHT22;310;48.490;9.200;2023-03-07T16:41:56;10.20;17.50
652;DHT22;310;48.490;9.200;2023-03-07T16:44:22;10.20;17.60
652;DHT22;310;48.490;9.200;2023-03-07T16:46:56;10.50;16.90
652;DHT22;310;48.490;9.200;2023-03-07T16:49:22;10.00;17.40
652;DHT22;310;48.490;9.200;2023-03-07T16:51:48;9.60;18.90
652;DHT22;310;48.490;9.200;2023-03-07T16:54:14;9.50;19.20
652;DHT22;310;48.490;9.200;2023-03-07T16:56:45;9.20;19.90
652;DHT22;310;48.490;9.200;2023-03-07T16:59:14;8.90;20.10
652;DHT22;310;48.490;9.200;2023-03-07T17:01:43;8.50;21.20
652;DHT22;310;48.490;9.200;2023-03-07T17:04:08;8.90;20.50
652;DHT22;310;48.490;9.200;2023-03-07T17:06:34;8.50;20.90
652;DHT22;310;48.490;9.200;2023-03-07T17:09:00;8.80;20.80
652;DHT22;310;48.490;9.200;2023-03-07T17:11:26;8.50;20.60
652;DHT22;310;48.490;9.200;2023-03-07T17:13:56;8.70;20.90
652;DHT22;310;48.490;9.200;2023-03-07T17:16:23;8.60;20.70
652;DHT22;310;48.490;9.200;2023-03-07T17:18:49;8.70;20.60
652;DHT22;310;48.490;9.200;2023-03-07T17:21:17;8.80;20.60
652;DHT22;310;48.490;9.200;2023-03-07T17:23:43;8.80;20.60
652;DHT22;310;48.490;9.200;2023-03-07T17:26:41;8.30;20.90
652;DHT22;310;48.490;9.200;2023-03-07T17:29:12;8.40;21.10
652;DHT22;310;48.490;9.200;2023-03-07T17:31:40;8.90;20.70
652;DHT22;310;48.490;9.200;2023-03-07T17:34:25;9.20;20.30
652;DHT22;310;48.490;9.200;2023-03-07T17:36:50;9.20;20.00
652;DHT22;310;48.490;9.200;2023-03-07T17:39:16;9.40;19.40
652;DHT22;310;48.490;9.200;2023-03-07T17:41:42;9.40;19.20
652;DHT22;310;48.490;9.200;2023-03-07T17:44:07;9.40;19.70
652;DHT22;310;48.490;9.200;2023-03-07T17:46:33;9.20;19.70
652;DHT22;310;48.490;9.200;2023-03-07T17:48:58;9.20;19.60
652;DHT22;310;48.490;9.200;2023-03-07T17:51:24;9.10;20.10
652;DHT22;310;48.490;9.200;2023-03-07T17:53:49;9.60;19.30
652;DHT22;310;48.490;9.200;2023-03-07T17:56:15;9.40;19.40
652;DHT22;310;48.490;9.200;2023-03-07T17:58:41;9.50;19.20
652;DHT22;310;48.490;9.200;2023-03-07T18:01:07;9.20;19.90
652;DHT22;310;48.490;9.200;2023-03-07T18:03:35;9.10;20.00
652;DHT22;310;48.490;9.200;2023-03-07T18:06:01;8.80;20.30
652;DHT22;310;48.490;9.200;2023-03-07T18:08:27;9.10;20.60
652;DHT22;310;48.490;9.200;2023-03-07T18:10:53;9.40;19.30
652;DHT22;310;48.490;9.200;2023-03-07T18:13:18;9.50;19.20
652;DHT22;310;48.490;9.200;2023-03-07T18:15:46;9.80;19.50
652;DHT22;310;48.490;9.200;2023-03-07T18:18:12;9.10;20.00
652;DHT22;310;48.490;9.200;2023-03-07T18:20:38;9.10;20.00
652;DHT22;310;48.490;9.200;2023-03-07T18:23:04;8.90;20.40
652;DHT22;310;48.490;9.200;2023-03-07T18:25:30;8.40;21.10
652;DHT22;310;48.490;9.200;2023-03-07T18:27:55;8.30;21.40
652;DHT22;310;48.490;9.200;2023-03-07T18:30:21;8.30;21.20
652;DHT22;310;48.490;9.200;2023-03-07T18:32:47;8.30;21.60
652;DHT22;310;48.490;9.200;2023-03-07T18:35:13;8.20;21.70
652;DHT22;310;48.490;9.200;2023-03-07T18:37:40;8.50;21.10
652;DHT22;310;48.490;9.200;2023-03-07T18:40:07;8.50;21.20
652;DHT22;310;48.490;9.200;2023-03-07T18:42:33;8.50;21.10
652;DHT22;310;48.490;9.200;2023-03-07T18:44:59;8.40;21.10
652;DHT22;310;48.490;9.200;2023-03-07T18:47:24;8.40;21.20
652;DHT22;310;48.490;9.200;2023-03-07T18:49:50;8.50;21.70
652;DHT22;310;48.490;9.200;2023-03-07T18:52:16;8.20;21.40
652;DHT22;310;48.490;9.200;2023-03-07T18:54:43;8.50;21.30
652;DHT22;310;48.490;9.200;2023-03-07T18:57:08;8.70;21.10
652;DHT22;310;48.490;9.200;2023-03-07T18:59:34;8.50;21.00
652;DHT22;310;48.490;9.200;2023-03-07T19:01:59;8.60;21.20
652;DHT22;310;48.490;9.200;2023-03-07T19:04:28;8.20;21.40
652;DHT22;310;48.490;9.200;2023-03-07T19:06:53;8.10;21.80
652;DHT22;310;48.490;9.200;2023-03-07T19:09:22;8.10;21.50
652;DHT22;310;48.490;9.200;2023-03-07T19:11:50;8.10;22.20
652;DHT22;310;48.490;9.200;2023-03-07T19:14:16;7.70;22.40
652;DHT22;310;48.490;9.200;2023-03-07T19:16:42;8.00;22.10